sensor_id;sensor_type;location;lat;lon;timestamp;pressure;altitude;pressure_sealevel;temperature;humidity
7940;BME280;4015;48.888;9.226;2023-04-25T00:00:39;157548.63;;;9.17;82.23
7940;BME280;4015;48.888;9.226;2023-04-25T00:03:04;157563.97;;;9.23;83.27
7940;BME280;4015;48.888;9.226;2023-04-25T00:05:31;157575.44;;;9.28;82.84
7940;BME280;4015;48.888;9.226;2023-04-25T00:07:57;157562.69;;;9.23;83.60
7940;BME280;4015;48.888;9.226;2023-04-25T00:10:22;157593.31;;;9.35;83.81
7940;BME280;4015;48.888;9.226;2023-04-25T00:12:48;157572.91;;;9.27;84.02
7940;BME280;4015;48.888;9.226;2023-04-25T00:15:13;157578.00;;;9.29;85.78
7940;BME280;4015;48.888;9.226;2023-04-25T00:17:39;157581.88;;;9.30;85.69
7940;BME280;4015;48.888;9.226;2023-04-25T00:20:05;157597.13;;;9.36;84.52
7940;BME280;4015;48.888;9.226;2023-04-25T00:22:32;157606.09;;;9.40;84.23
7940;BME280;4015;48.888;9.226;2023-04-25T00:24:59;157586.94;;;9.32;85.35
7940;BME280;4015;48.888;9.226;2023-04-25T00:27:26;157590.78;;;9.34;84.82
7940;BME280;4015;48.888;9.226;2023-04-25T00:29:51;157584.41;;;9.31;84.21
7940;BME280;4015;48.888;9.226;2023-04-25T00:32:16;157570.38;;;9.26;84.21
7940;BME280;4015;48.888;9.226;2023-04-25T00:34:42;157578.00;;;9.29;84.73
7940;BME280;4015;48.888;9.226;2023-04-25T00:37:07;157526.97;;;9.08;85.21
7940;BME280;4015;48.888;9.226;2023-04-25T00:39:32;157525.69;;;9.08;85.35
7940;BME280;4015;48.888;9.226;2023-04-25T00:41:58;157507.81;;;9.01;85.43
7940;BME280;4015;48.888;9.226;2023-04-25T00:44:24;157514.19;;;9.03;86.16
7940;BME280;4015;48.888;9.226;2023-04-25T00:46:52;157529.50;;;9.09;85.48
7940;BME280;4015;48.888;9.226;2023-04-25T00:49:17;157525.69;;;9.08;85.33
7940;BME280;4015;48.888;9.226;2023-04-25T00:51:43;157519.34;;;9.05;87.16
7940;BME280;4015;48.888;9.226;2023-04-25T00:54:13;157556.31;;;9.20;87.66
7940;BME280;4015;48.888;9.226;2023-04-25T00:56:39;157552.50;;;9.18;86.97
7940;BME280;4015;48.888;9.226;2023-04-25T00:59:05;157534.66;;;9.11;87.03
7940;BME280;4015;48.888;9.226;2023-04-25T01:01:31;157521.88;;;9.06;86.48
7940;BME280;4015;48.888;9.226;2023-04-25T01:03:58;157501.41;;;8.98;86.80
7940;BME280;4015;48.888;9.226;2023-04-25T01:06:24;157502.69;;;8.99;86.56
7940;BME280;4015;48.888;9.226;2023-04-25T01:08:49;157515.47;;;9.04;87.32
7940;BME280;4015;48.888;9.226;2023-04-25T01:11:16;157516.72;;;9.04;87.05
7940;BME280;4015;48.888;9.226;2023-04-25T01:13:41;157512.91;;;9.03;85.28
7940;BME280;4015;48.888;9.226;2023-04-25T01:16:06;157495.06;;;8.96;84.96
7940;BME280;4015;48.888;9.226;2023-04-25T01:18:32;157516.72;;;9.04;85.26
7940;BME280;4015;48.888;9.226;2023-04-25T01:21:08;157539.72;;;9.13;85.54
7940;BME280;4015;48.888;9.226;2023-04-25T01:23:36;157532.06;;;9.10;85.71
7940;BME280;4015;48.888;9.226;2023-04-25T01:26:02;157528.25;;;9.09;86.27
7940;BME280;4015;48.888;9.226;2023-04-25T01:28:28;157539.72;;;9.13;84.61
7940;BME280;4015;48.888;9.226;2023-04-25T01:30:54;157542.28;;;9.14;84.83
7940;BME280;4015;48.888;9.226;2023-04-25T01:33:21;157562.69;;;9.23;84.98
7940;BME280;4015;48.888;9.226;2023-04-25T01:35:46;157575.44;;;9.28;85.41
7940;BME280;4015;48.888;9.226;2023-04-25T01:38:13;157557.59;;;9.21;84.83
7940;BME280;4015;48.888;9.226;2023-04-25T01:40:40;157530.78;;;9.10;85.37
7940;BME280;4015;48.888;9.226;2023-04-25T01:43:06;157525.69;;;9.08;85.42
7940;BME280;4015;48.888;9.226;2023-04-25T01:45:33;157523.16;;;9.07;85.49
7940;BME280;4015;48.888;9.226;2023-04-25T01:47:59;157512.91;;;9.03;85.14
7940;BME280;4015;48.888;9.226;2023-04-25T01:50:25;157486.09;;;8.92;85.23
7940;BME280;4015;48.888;9.226;2023-04-25T01:52:50;157473.38;;;8.87;85.13
7940;BME280;4015;48.888;9.226;2023-04-25T01:55:16;157444.03;;;8.75;85.95
7940;BME280;4015;48.888;9.226;2023-04-25T01:57:41;157455.47;;;8.80;86.26
7940;BME280;4015;48.888;9.226;2023-04-25T02:00:07;157438.91;;;8.73;84.76
7940;BME280;4015;48.888;9.226;2023-04-25T02:02:34;157409.59;;;8.61;84.60
7940;BME280;4015;48.888;9.226;2023-04-25T02:05:00;157428.72;;;8.69;85.06
7940;BME280;4015;48.888;9.226;2023-04-25T02:07:26;157436.34;;;8.72;85.56
7940;BME280;4015;48.888;9.226;2023-04-25T02:09:52;157461.88;;;8.82;85.08
7940;BME280;4015;48.888;9.226;2023-04-25T02:12:17;157470.78;;;8.86;85.79
7940;BME280;4015;48.888;9.226;2023-04-25T02:14:43;157481.03;;;8.90;86.26
7940;BME280;4015;48.888;9.226;2023-04-25T02:17:08;157472.13;;;8.86;86.43
7940;BME280;4015;48.888;9.226;2023-04-25T02:19:33;157481.03;;;8.90;87.21
7940;BME280;4015;48.888;9.226;2023-04-25T02:21:59;157493.78;;;8.95;87.91
7940;BME280;4015;48.888;9.226;2023-04-25T02:24:24;157492.50;;;8.95;88.72
7940;BME280;4015;48.888;9.226;2023-04-25T02:26:50;157498.88;;;8.97;88.24
7940;BME280;4015;48.888;9.226;2023-04-25T02:29:16;157509.09;;;9.01;87.47
7940;BME280;4015;48.888;9.226;2023-04-25T02:31:41;157491.25;;;8.94;86.88
7940;BME280;4015;48.888;9.226;2023-04-25T02:34:07;157488.69;;;8.93;86.42
7940;BME280;4015;48.888;9.226;2023-04-25T02:36:32;157486.09;;;8.92;86.70
7940;BME280;4015;48.888;9.226;2023-04-25T02:39:00;157489.97;;;8.94;87.19
7940;BME280;4015;48.888;9.226;2023-04-25T02:41:26;157487.44;;;8.93;86.78
7940;BME280;4015;48.888;9.226;2023-04-25T02:43:51;157469.53;;;8.85;86.72
7940;BME280;4015;48.888;9.226;2023-04-25T02:46:16;157477.19;;;8.88;87.03
7940;BME280;4015;48.888;9.226;2023-04-25T02:48:42;157483.56;;;8.91;86.72
7940;BME280;4015;48.888;9.226;2023-04-25T02:51:07;157478.47;;;8.89;87.38
7940;BME280;4015;48.888;9.226;2023-04-25T02:53:32;157486.09;;;8.92;87.53
7940;BME280;4015;48.888;9.226;2023-04-25T02:55:58;157518.00;;;9.05;86.87
7940;BME280;4015;48.888;9.226;2023-04-25T02:58:24;157507.81;;;9.01;86.13
7940;BME280;4015;48.888;9.226;2023-04-25T03:00:49;157512.91;;;9.03;85.85
7940;BME280;4015;48.888;9.226;2023-04-25T03:03:15;157516.72;;;9.04;86.23
7940;BME280;4015;48.888;9.226;2023-04-25T03:05:43;157544.81;;;9.15;84.96
7940;BME280;4015;48.888;9.226;2023-04-25T03:08:09;157548.63;;;9.17;85.18
7940;BME280;4015;48.888;9.226;2023-04-25T03:10:34;157534.66;;;9.11;86.22
7940;BME280;4015;48.888;9.226;2023-04-25T03:12:59;157514.19;;;9.03;87.00
7940;BME280;4015;48.888;9.226;2023-04-25T03:15:25;157502.69;;;8.99;87.02
7940;BME280;4015;48.888;9.226;2023-04-25T03:17:50;157481.03;;;8.90;85.34
7940;BME280;4015;48.888;9.226;2023-04-25T03:20:15;157487.44;;;8.93;84.95
7940;BME280;4015;48.888;9.226;2023-04-25T03:22:41;157510.38;;;9.02;84.98
7940;BME280;4015;48.888;9.226;2023-04-25T03:25:07;157524.41;;;9.07;84.50
7940;BME280;4015;48.888;9.226;2023-04-25T03:27:33;157501.41;;;8.98;85.47
7940;BME280;4015;48.888;9.226;2023-04-25T03:29:58;157491.25;;;8.94;85.70
7940;BME280;4015;48.888;9.226;2023-04-25T03:32:24;157495.06;;;8.96;84.95
7940;BME280;4015;48.888;9.226;2023-04-25T03:34:50;157493.78;;;8.95;85.12
7940;BME280;4015;48.888;9.226;2023-04-25T03:37:15;157502.69;;;8.99;85.64
7940;BME280;4015;48.888;9.226;2023-04-25T03:39:40;157532.06;;;9.10;84.88
7940;BME280;4015;48.888;9.226;2023-04-25T03:42:05;157541.00;;;9.14;84.44
7940;BME280;4015;48.888;9.226;2023-04-25T03:44:31;157525.69;;;9.08;84.94
7940;BME280;4015;48.888;9.226;2023-04-25T03:46:56;157502.69;;;8.99;84.49
7940;BME280;4015;48.888;9.226;2023-04-25T03:49:22;157520.59;;;9.06;85.05
7940;BME280;4015;48.888;9.226;2023-04-25T03:51:47;157548.63;;;9.17;84.43
7940;BME280;4015;48.888;9.226;2023-04-25T03:54:12;157552.50;;;9.18;83.71
7940;BME280;4015;48.888;9.226;2023-04-25T03:56:37;157552.50;;;9.18;83.99
7940;BME280;4015;48.888;9.226;2023-04-25T03:59:03;157557.59;;;9.21;84.27
7940;BME280;4015;48.888;9.226;2023-04-25T04:01:28;157553.78;;;9.19;83.45
7940;BME280;4015;48.888;9.226;2023-04-25T04:03:54;157524.41;;;9.07;84.36
7940;BME280;4015;48.888;9.226;2023-04-25T04:06:19;157529.50;;;9.09;83.08
7940;BME280;4015;48.888;9.226;2023-04-25T04:08:46;157496.34;;;8.96;84.07
7940;BME280;4015;48.888;9.226;2023-04-25T04:11:11;157501.41;;;8.98;84.08
7940;BME280;4015;48.888;9.226;2023-04-25T04:13:36;157500.16;;;8.98;83.96
7940;BME280;4015;48.888;9.226;2023-04-25T04:16:02;157497.59;;;8.97;84.24
7940;BME280;4015;48.888;9.226;2023-04-25T04:18:29;157466.97;;;8.84;85.67
7940;BME280;4015;48.888;9.226;2023-04-25T04:20:54;157460.63;;;8.82;84.78
7940;BME280;4015;48.888;9.226;2023-04-25T04:23:20;157487.44;;;8.93;85.13
7940;BME280;4015;48.888;9.226;2023-04-25T04:25:45;157461.88;;;8.82;84.53
7940;BME280;4015;48.888;9.226;2023-04-25T04:28:11;157470.78;;;8.86;84.38
7940;BME280;4015;48.888;9.226;2023-04-25T04:30:38;157475.94;;;8.88;83.88
7940;BME280;4015;48.888;9.226;2023-04-25T04:33:04;157477.19;;;8.88;84.36
7940;BME280;4015;48.888;9.226;2023-04-25T04:35:29;157496.34;;;8.96;85.71
7940;BME280;4015;48.888;9.226;2023-04-25T04:37:55;157489.97;;;8.94;84.72
7940;BME280;4015;48.888;9.226;2023-04-25T04:40:21;157491.25;;;8.94;84.08
7940;BME280;4015;48.888;9.226;2023-04-25T04:42:47;157497.59;;;8.97;84.56
7940;BME280;4015;48.888;9.226;2023-04-25T04:45:12;157534.66;;;9.11;84.34
7940;BME280;4015;48.888;9.226;2023-04-25T04:47:38;157530.78;;;9.10;83.71
7940;BME280;4015;48.888;9.226;2023-04-25T04:50:08;157524.41;;;9.07;84.83
7940;BME280;4015;48.888;9.226;2023-04-25T04:52:35;157539.72;;;9.13;84.07
7940;BME280;4015;48.888;9.226;2023-04-25T04:55:01;157542.28;;;9.14;82.72
7940;BME280;4015;48.888;9.226;2023-04-25T04:57:27;157549.91;;;9.17;82.86
7940;BME280;4015;48.888;9.226;2023-04-25T04:59:53;157515.47;;;9.04;82.67
7940;BME280;4015;48.888;9.226;2023-04-25T05:02:18;157523.16;;;9.07;83.24
7940;BME280;4015;48.888;9.226;2023-04-25T05:04:44;157534.66;;;9.11;84.21
7940;BME280;4015;48.888;9.226;2023-04-25T05:07:10;157535.91;;;9.12;83.63
7940;BME280;4015;48.888;9.226;2023-04-25T05:09:35;157519.34;;;9.05;82.96
7940;BME280;4015;48.888;9.226;2023-04-25T05:12:00;157549.91;;;9.17;83.52
7940;BME280;4015;48.888;9.226;2023-04-25T05:14:26;157575.44;;;9.28;83.40
7940;BME280;4015;48.888;9.226;2023-04-25T05:16:52;157593.31;;;9.35;83.02
7940;BME280;4015;48.888;9.226;2023-04-25T05:19:17;157595.84;;;9.36;82.15
7940;BME280;4015;48.888;9.226;2023-04-25T05:21:42;157607.34;;;9.40;82.70
7940;BME280;4015;48.888;9.226;2023-04-25T05:24:08;157658.41;;;9.61;81.25
7940;BME280;4015;48.888;9.226;2023-04-25T05:26:33;157658.41;;;9.61;80.78
7940;BME280;4015;48.888;9.226;2023-04-25T05:28:59;157705.66;;;9.80;79.58
7940;BME280;4015;48.888;9.226;2023-04-25T05:31:25;157708.25;;;9.81;79.89
7940;BME280;4015;48.888;9.226;2023-04-25T05:33:51;157715.88;;;9.84;79.25
7940;BME280;4015;48.888;9.226;2023-04-25T05:36:16;157690.31;;;9.73;79.71
7940;BME280;4015;48.888;9.226;2023-04-25T05:38:41;157712.06;;;9.82;79.51
7940;BME280;4015;48.888;9.226;2023-04-25T05:41:07;157704.38;;;9.79;78.68
7940;BME280;4015;48.888;9.226;2023-04-25T05:43:32;157705.66;;;9.80;78.72
7940;BME280;4015;48.888;9.226;2023-04-25T05:45:58;157687.78;;;9.72;79.56
7940;BME280;4015;48.888;9.226;2023-04-25T05:48:23;157704.38;;;9.79;78.48
7940;BME280;4015;48.888;9.226;2023-04-25T05:50:48;157677.59;;;9.68;79.82
7940;BME280;4015;48.888;9.226;2023-04-25T05:53:14;157677.59;;;9.68;79.51
7940;BME280;4015;48.888;9.226;2023-04-25T05:55:39;157623.94;;;9.47;80.05
7940;BME280;4015;48.888;9.226;2023-04-25T05:58:05;157635.44;;;9.52;79.97
7940;BME280;4015;48.888;9.226;2023-04-25T06:00:30;157629.09;;;9.49;78.88
7940;BME280;4015;48.888;9.226;2023-04-25T06:02:56;157629.09;;;9.49;78.61
7940;BME280;4015;48.888;9.226;2023-04-25T06:05:21;157641.81;;;9.54;79.30
7940;BME280;4015;48.888;9.226;2023-04-25T06:07:46;157657.13;;;9.60;79.02
7940;BME280;4015;48.888;9.226;2023-04-25T06:10:11;157729.94;;;9.89;78.10
7940;BME280;4015;48.888;9.226;2023-04-25T06:12:37;157828.28;;;10.29;77.52
7940;BME280;4015;48.888;9.226;2023-04-25T06:15:04;157916.44;;;10.64;76.74
7940;BME280;4015;48.888;9.226;2023-04-25T06:17:29;157975.16;;;10.87;75.69
7940;BME280;4015;48.888;9.226;2023-04-25T06:19:55;158042.94;;;11.14;74.20
7940;BME280;4015;48.888;9.226;2023-04-25T06:22:20;158100.41;;;11.37;74.14
7940;BME280;4015;48.888;9.226;2023-04-25T06:24:46;158078.69;;;11.28;73.63
7940;BME280;4015;48.888;9.226;2023-04-25T06:27:11;158114.47;;;11.43;73.69
7940;BME280;4015;48.888;9.226;2023-04-25T06:29:37;158246.22;;;11.95;73.01
7940;BME280;4015;48.888;9.226;2023-04-25T06:32:02;158395.78;;;12.55;72.50
7940;BME280;4015;48.888;9.226;2023-04-25T06:34:27;158386.88;;;12.51;71.98
7940;BME280;4015;48.888;9.226;2023-04-25T06:36:52;158389.41;;;12.52;71.88
7940;BME280;4015;48.888;9.226;2023-04-25T06:39:18;158336.94;;;12.31;72.42
7940;BME280;4015;48.888;9.226;2023-04-25T06:41:45;158333.13;;;12.30;72.04
7940;BME280;4015;48.888;9.226;2023-04-25T06:44:10;158335.69;;;12.31;71.93
7940;BME280;4015;48.888;9.226;2023-04-25T06:46:35;158388.16;;;12.52;72.21
7940;BME280;4015;48.888;9.226;2023-04-25T06:49:01;158409.88;;;12.60;72.69
7940;BME280;4015;48.888;9.226;2023-04-25T06:51:26;158440.56;;;12.73;71.04
7940;BME280;4015;48.888;9.226;2023-04-25T06:53:54;158523.72;;;13.06;69.78
7940;BME280;4015;48.888;9.226;2023-04-25T06:56:20;158510.91;;;13.01;67.92
7940;BME280;4015;48.888;9.226;2023-04-25T06:58:47;158454.66;;;12.78;67.63
7940;BME280;4015;48.888;9.226;2023-04-25T07:01:12;158383.00;;;12.50;66.87
7940;BME280;4015;48.888;9.226;2023-04-25T07:03:38;158372.78;;;12.46;67.92
7940;BME280;4015;48.888;9.226;2023-04-25T07:06:03;158234.69;;;11.91;69.64
7940;BME280;4015;48.888;9.226;2023-04-25T07:08:29;158246.22;;;11.95;69.85
7940;BME280;4015;48.888;9.226;2023-04-25T07:10:54;158200.13;;;11.77;69.83
7940;BME280;4015;48.888;9.226;2023-04-25T07:13:20;158124.72;;;11.47;72.53
7940;BME280;4015;48.888;9.226;2023-04-25T07:15:45;158087.66;;;11.32;72.86
7940;BME280;4015;48.888;9.226;2023-04-25T07:18:12;158114.47;;;11.43;71.95
7940;BME280;4015;48.888;9.226;2023-04-25T07:20:37;158025.03;;;11.07;72.98
7940;BME280;4015;48.888;9.226;2023-04-25T07:23:03;158032.69;;;11.10;72.72
7940;BME280;4015;48.888;9.226;2023-04-25T07:25:28;158030.13;;;11.09;72.71
7940;BME280;4015;48.888;9.226;2023-04-25T07:27:53;158050.56;;;11.17;72.53
7940;BME280;4015;48.888;9.226;2023-04-25T07:30:19;157944.56;;;10.75;73.84
7940;BME280;4015;48.888;9.226;2023-04-25T07:32:44;157943.25;;;10.74;75.23
7940;BME280;4015;48.888;9.226;2023-04-25T07:35:10;157956.03;;;10.79;73.88
7940;BME280;4015;48.888;9.226;2023-04-25T07:37:36;157926.63;;;10.68;74.65
7940;BME280;4015;48.888;9.226;2023-04-25T07:40:02;157953.47;;;10.78;75.86
7940;BME280;4015;48.888;9.226;2023-04-25T07:42:29;157901.13;;;10.58;75.15
7940;BME280;4015;48.888;9.226;2023-04-25T07:44:54;157911.31;;;10.62;76.85
7940;BME280;4015;48.888;9.226;2023-04-25T07:47:20;157919.00;;;10.65;76.50
7940;BME280;4015;48.888;9.226;2023-04-25T07:49:45;157904.94;;;10.59;78.70
7940;BME280;4015;48.888;9.226;2023-04-25T07:52:11;157843.63;;;10.35;81.99
7940;BME280;4015;48.888;9.226;2023-04-25T07:54:36;157844.88;;;10.35;81.74
7940;BME280;4015;48.888;9.226;2023-04-25T07:57:02;157858.94;;;10.41;79.38
7940;BME280;4015;48.888;9.226;2023-04-25T07:59:27;157812.91;;;10.22;82.06
7940;BME280;4015;48.888;9.226;2023-04-25T08:01:53;157805.28;;;10.19;84.73
7940;BME280;4015;48.888;9.226;2023-04-25T08:04:18;157811.63;;;10.22;84.40
7940;BME280;4015;48.888;9.226;2023-04-25T08:06:43;157805.28;;;10.19;84.28
7940;BME280;4015;48.888;9.226;2023-04-25T08:09:10;157805.28;;;10.19;84.55
7940;BME280;4015;48.888;9.226;2023-04-25T08:11:36;157834.69;;;10.31;84.73
7940;BME280;4015;48.888;9.226;2023-04-25T08:14:01;157814.22;;;10.23;84.58
7940;BME280;4015;48.888;9.226;2023-04-25T08:16:27;157832.09;;;10.30;85.40
7940;BME280;4015;48.888;9.226;2023-04-25T08:18:53;157862.75;;;10.42;85.59
7940;BME280;4015;48.888;9.226;2023-04-25T08:21:18;157901.13;;;10.58;86.01
7940;BME280;4015;48.888;9.226;2023-04-25T08:23:44;157929.22;;;10.69;84.47
7940;BME280;4015;48.888;9.226;2023-04-25T08:26:10;157949.66;;;10.77;82.40
7940;BME280;4015;48.888;9.226;2023-04-25T08:28:35;157939.41;;;10.73;80.11
7940;BME280;4015;48.888;9.226;2023-04-25T08:31:00;157880.63;;;10.49;83.50
7940;BME280;4015;48.888;9.226;2023-04-25T08:33:26;157839.78;;;10.33;85.58
7940;BME280;4015;48.888;9.226;2023-04-25T08:35:51;157805.28;;;10.19;85.05
7940;BME280;4015;48.888;9.226;2023-04-25T08:38:17;157818.09;;;10.24;85.38
7940;BME280;4015;48.888;9.226;2023-04-25T08:40:43;157784.81;;;10.11;85.31
7940;BME280;4015;48.888;9.226;2023-04-25T08:43:11;157810.38;;;10.21;85.54
7940;BME280;4015;48.888;9.226;2023-04-25T08:45:39;157825.75;;;10.27;86.63
7940;BME280;4015;48.888;9.226;2023-04-25T08:48:08;157843.63;;;10.35;86.05
7940;BME280;4015;48.888;9.226;2023-04-25T08:50:37;157832.09;;;10.30;86.07
7940;BME280;4015;48.888;9.226;2023-04-25T08:53:07;157858.94;;;10.41;85.34
7940;BME280;4015;48.888;9.226;2023-04-25T08:55:34;157888.34;;;10.52;85.35
7940;BME280;4015;48.888;9.226;2023-04-25T08:58:00;157897.28;;;10.56;85.73
7940;BME280;4015;48.888;9.226;2023-04-25T09:00:26;157816.78;;;10.24;84.59
7940;BME280;4015;48.888;9.226;2023-04-25T09:02:52;157855.13;;;10.39;84.74
7940;BME280;4015;48.888;9.226;2023-04-25T09:05:18;157838.53;;;10.33;83.87
7940;BME280;4015;48.888;9.226;2023-04-25T09:07:43;157828.28;;;10.29;82.84
7940;BME280;4015;48.888;9.226;2023-04-25T09:10:09;157778.44;;;10.09;84.72
7940;BME280;4015;48.888;9.226;2023-04-25T09:12:36;157818.09;;;10.24;82.34
7940;BME280;4015;48.888;9.226;2023-04-25T09:15:04;157818.09;;;10.24;83.53
7940;BME280;4015;48.888;9.226;2023-04-25T09:17:30;157815.50;;;10.23;83.51
7940;BME280;4015;48.888;9.226;2023-04-25T09:20:05;157839.78;;;10.33;82.84
7940;BME280;4015;48.888;9.226;2023-04-25T09:22:31;157829.56;;;10.29;83.83
7940;BME280;4015;48.888;9.226;2023-04-25T09:24:56;157800.13;;;10.17;85.22
7940;BME280;4015;48.888;9.226;2023-04-25T09:27:21;157798.88;;;10.17;86.79
7940;BME280;4015;48.888;9.226;2023-04-25T09:29:57;157848.72;;;10.37;84.74
7940;BME280;4015;48.888;9.226;2023-04-25T09:32:24;157819.38;;;10.25;84.37
7940;BME280;4015;48.888;9.226;2023-04-25T09:34:50;157853.84;;;10.39;84.82
7940;BME280;4015;48.888;9.226;2023-04-25T09:37:24;157869.19;;;10.45;85.31
7940;BME280;4015;48.888;9.226;2023-04-25T09:39:53;157888.34;;;10.52;87.60
7940;BME280;4015;48.888;9.226;2023-04-25T09:42:22;157832.09;;;10.30;87.91
7940;BME280;4015;48.888;9.226;2023-04-25T09:44:51;157834.69;;;10.31;88.24
7940;BME280;4015;48.888;9.226;2023-04-25T09:47:17;157798.88;;;10.17;89.65
7940;BME280;4015;48.888;9.226;2023-04-25T09:49:43;157825.75;;;10.27;88.86
7940;BME280;4015;48.888;9.226;2023-04-25T09:52:13;157820.66;;;10.25;86.95
7940;BME280;4015;48.888;9.226;2023-04-25T09:54:39;157875.53;;;10.47;87.84
7940;BME280;4015;48.888;9.226;2023-04-25T09:57:25;157866.63;;;10.44;86.77
7940;BME280;4015;48.888;9.226;2023-04-25T09:59:55;157852.56;;;10.38;84.54
7940;BME280;4015;48.888;9.226;2023-04-25T10:02:24;157819.38;;;10.25;86.20
7940;BME280;4015;48.888;9.226;2023-04-25T10:04:52;157819.38;;;10.25;85.54
7940;BME280;4015;48.888;9.226;2023-04-25T10:07:20;157795.03;;;10.15;86.07
7940;BME280;4015;48.888;9.226;2023-04-25T10:09:48;157731.19;;;9.90;87.53
7940;BME280;4015;48.888;9.226;2023-04-25T10:12:17;157714.59;;;9.83;87.35
7940;BME280;4015;48.888;9.226;2023-04-25T10:14:43;157668.63;;;9.65;88.54
7940;BME280;4015;48.888;9.226;2023-04-25T10:17:10;157673.72;;;9.67;88.65
7940;BME280;4015;48.888;9.226;2023-04-25T10:19:36;157578.00;;;9.29;88.82
7940;BME280;4015;48.888;9.226;2023-04-25T10:24:37;157515.47;;;9.04;91.43
7940;BME280;4015;48.888;9.226;2023-04-25T10:27:04;157493.78;;;8.95;92.02
7940;BME280;4015;48.888;9.226;2023-04-25T10:29:29;157514.19;;;9.03;92.06
7940;BME280;4015;48.888;9.226;2023-04-25T10:31:56;157515.47;;;9.04;92.64
7940;BME280;4015;48.888;9.226;2023-04-25T10:34:38;157459.34;;;8.81;91.31
7940;BME280;4015;48.888;9.226;2023-04-25T10:37:04;157423.59;;;8.67;91.90
7940;BME280;4015;48.888;9.226;2023-04-25T10:39:32;157391.69;;;8.54;92.24
7940;BME280;4015;48.888;9.226;2023-04-25T10:41:58;157393.03;;;8.55;91.36
7940;BME280;4015;48.888;9.226;2023-04-25T10:44:30;157330.47;;;8.30;92.12
7940;BME280;4015;48.888;9.226;2023-04-25T10:47:00;157283.28;;;8.11;92.38
7940;BME280;4015;48.888;9.226;2023-04-25T10:49:34;157270.50;;;8.06;92.57
7940;BME280;4015;48.888;9.226;2023-04-25T10:52:24;157239.91;;;7.94;92.76
7940;BME280;4015;48.888;9.226;2023-04-25T10:54:57;157247.53;;;7.97;91.78
7940;BME280;4015;48.888;9.226;2023-04-25T11:02:26;157301.13;;;8.18;90.05
7940;BME280;4015;48.888;9.226;2023-04-25T11:04:53;157357.25;;;8.41;91.28
7940;BME280;4015;48.888;9.226;2023-04-25T11:07:49;157386.59;;;8.52;91.12
7940;BME280;4015;48.888;9.226;2023-04-25T11:10:15;157442.75;;;8.75;91.04
7940;BME280;4015;48.888;9.226;2023-04-25T11:12:40;157459.34;;;8.81;89.22
7940;BME280;4015;48.888;9.226;2023-04-25T11:15:07;157552.50;;;9.18;90.77
7940;BME280;4015;48.888;9.226;2023-04-25T11:17:33;157597.13;;;9.36;86.50
7940;BME280;4015;48.888;9.226;2023-04-25T11:19:59;157627.78;;;9.49;87.48
7940;BME280;4015;48.888;9.226;2023-04-25T11:22:26;157654.59;;;9.59;88.91
7940;BME280;4015;48.888;9.226;2023-04-25T11:24:52;157629.09;;;9.49;88.37
7940;BME280;4015;48.888;9.226;2023-04-25T11:27:18;157643.09;;;9.55;86.84
7940;BME280;4015;48.888;9.226;2023-04-25T11:29:43;157695.47;;;9.76;87.66
7940;BME280;4015;48.888;9.226;2023-04-25T11:32:09;157682.69;;;9.70;86.94
7940;BME280;4015;48.888;9.226;2023-04-25T11:34:34;157668.63;;;9.65;86.24
7940;BME280;4015;48.888;9.226;2023-04-25T11:37:01;157640.53;;;9.54;86.48
7940;BME280;4015;48.888;9.226;2023-04-25T11:39:27;157668.63;;;9.65;87.76
7940;BME280;4015;48.888;9.226;2023-04-25T11:41:53;157708.25;;;9.81;88.05
7940;BME280;4015;48.888;9.226;2023-04-25T11:44:19;157717.16;;;9.84;88.68
7940;BME280;4015;48.888;9.226;2023-04-25T11:46:45;157729.94;;;9.89;88.29
7940;BME280;4015;48.888;9.226;2023-04-25T11:49:11;157737.56;;;9.92;87.11
7940;BME280;4015;48.888;9.226;2023-04-25T11:51:44;157657.13;;;9.60;85.94
7940;BME280;4015;48.888;9.226;2023-04-25T11:54:10;157685.22;;;9.71;85.05
7940;BME280;4015;48.888;9.226;2023-04-25T11:56:37;157724.84;;;9.87;87.19
7940;BME280;4015;48.888;9.226;2023-04-25T11:59:04;157751.63;;;9.98;86.40
7940;BME280;4015;48.888;9.226;2023-04-25T12:01:38;157786.09;;;10.12;87.70
7940;BME280;4015;48.888;9.226;2023-04-25T12:04:23;157827.03;;;10.28;85.06
7940;BME280;4015;48.888;9.226;2023-04-25T12:06:52;157816.78;;;10.24;85.90
7940;BME280;4015;48.888;9.226;2023-04-25T12:09:21;157862.75;;;10.42;87.31
7940;BME280;4015;48.888;9.226;2023-04-25T12:11:54;157895.97;;;10.56;85.15
7940;BME280;4015;48.888;9.226;2023-04-25T12:14:27;157933.03;;;10.70;85.53
7940;BME280;4015;48.888;9.226;2023-04-25T12:16:56;157957.28;;;10.80;85.24
7940;BME280;4015;48.888;9.226;2023-04-25T12:19:23;157957.28;;;10.80;84.80
7940;BME280;4015;48.888;9.226;2023-04-25T12:21:49;157880.63;;;10.49;84.03
7940;BME280;4015;48.888;9.226;2023-04-25T12:24:22;157913.91;;;10.63;84.05
7940;BME280;4015;48.888;9.226;2023-04-25T12:27:05;157833.38;;;10.31;84.41
7940;BME280;4015;48.888;9.226;2023-04-25T12:29:33;157768.22;;;10.05;86.50
7940;BME280;4015;48.888;9.226;2023-04-25T12:31:59;157812.91;;;10.22;87.22
7940;BME280;4015;48.888;9.226;2023-04-25T12:34:27;157841.06;;;10.34;86.43
7940;BME280;4015;48.888;9.226;2023-04-25T12:36:52;157903.66;;;10.59;85.06
7940;BME280;4015;48.888;9.226;2023-04-25T12:39:22;157940.69;;;10.73;82.76
7940;BME280;4015;48.888;9.226;2023-04-25T12:41:49;158069.72;;;11.25;83.83
7940;BME280;4015;48.888;9.226;2023-04-25T12:44:15;158156.66;;;11.59;85.85
7940;BME280;4015;48.888;9.226;2023-04-25T12:46:41;158321.59;;;12.25;83.75
7940;BME280;4015;48.888;9.226;2023-04-25T12:49:06;158408.59;;;12.60;79.00
7940;BME280;4015;48.888;9.226;2023-04-25T12:51:33;158452.09;;;12.77;79.12
7940;BME280;4015;48.888;9.226;2023-04-25T12:53:59;158444.41;;;12.74;77.10
7940;BME280;4015;48.888;9.226;2023-04-25T12:56:28;158535.25;;;13.10;76.83
7940;BME280;4015;48.888;9.226;2023-04-25T12:58:54;158601.81;;;13.37;73.44
7940;BME280;4015;48.888;9.226;2023-04-25T13:01:20;158722.13;;;13.85;75.99
7940;BME280;4015;48.888;9.226;2023-04-25T13:03:46;159105.06;;;15.37;72.83
7940;BME280;4015;48.888;9.226;2023-04-25T13:06:12;159365.25;;;16.40;67.19
7940;BME280;4015;48.888;9.226;2023-04-25T13:08:38;159278.09;;;16.06;65.86
7940;BME280;4015;48.888;9.226;2023-04-25T13:11:04;158948.78;;;14.75;68.01
7940;BME280;4015;48.888;9.226;2023-04-25T13:13:30;158806.59;;;14.18;69.39
7940;BME280;4015;48.888;9.226;2023-04-25T13:15:57;158734.94;;;13.90;72.21
7940;BME280;4015;48.888;9.226;2023-04-25T13:18:22;158797.66;;;14.15;70.94
7940;BME280;4015;48.888;9.226;2023-04-25T13:20:51;158830.94;;;14.28;69.01